sensor_id;sensor_type;location;lat;lon;timestamp;P1;durP1;ratioP1;P2;durP2;ratioP2
27543;SDS011;17996;51.056;3.656;2023-08-06T00:02:23;19.75;;;11.60;;
27543;SDS011;17996;51.056;3.656;2023-08-06T00:04:49;19.95;;;12.23;;
27543;SDS011;17996;51.056;3.656;2023-08-06T00:07:14;22.20;;;11.60;;
27543;SDS011;17996;51.056;3.656;2023-08-06T00:09:40;34.88;;;13.07;;
27543;SDS011;17996;51.056;3.656;2023-08-06T00:12:06;24.05;;;12.13;;
27543;SDS011;17996;51.056;3.656;2023-08-06T00:14:32;19.60;;;12.35;;
27543;SDS011;17996;51.056;3.656;2023-08-06T00:16:57;34.67;;;14.20;;
27543;SDS011;17996;51.056;3.656;2023-08-06T00:19:23;21.63;;;12.95;;
27543;SDS011;17996;51.056;3.656;2023-08-06T00:21:49;21.58;;;13.48;;
27543;SDS011;17996;51.056;3.656;2023-08-06T00:24:14;23.83;;;11.93;;
27543;SDS011;17996;51.056;3.656;2023-08-06T00:26:40;23.45;;;12.88;;
27543;SDS011;17996;51.056;3.656;2023-08-06T00:29:06;18.05;;;10.07;;
27543;SDS011;17996;51.056;3.656;2023-08-06T00:31:32;18.63;;;8.10;;
27543;SDS011;17996;51.056;3.656;2023-08-06T00:33:57;16.70;;;6.20;;
27543;SDS011;17996;51.056;3.656;2023-08-06T00:36:23;15.07;;;5.80;;
27543;SDS011;17996;51.056;3.656;2023-08-06T00:38:48;18.73;;;4.63;;
27543;SDS011;17996;51.056;3.656;2023-08-06T00:41:14;19.13;;;4.63;;
27543;SDS011;17996;51.056;3.656;2023-08-06T00:43:40;24.35;;;4.88;;
27543;SDS011;17996;51.056;3.656;2023-08-06T00:46:06;16.05;;;3.50;;
27543;SDS011;17996;51.056;3.656;2023-08-06T00:48:32;20.55;;;4.78;;
27543;SDS011;17996;51.056;3.656;2023-08-06T00:50:58;11.85;;;4.07;;
27543;SDS011;17996;51.056;3.656;2023-08-06T00:53:24;14.63;;;4.88;;
27543;SDS011;17996;51.056;3.656;2023-08-06T00:55:50;19.30;;;5.88;;
27543;SDS011;17996;51.056;3.656;2023-08-06T00:58:17;18.17;;;5.32;;
27543;SDS011;17996;51.056;3.656;2023-08-06T01:00:43;26.55;;;5.78;;
27543;SDS011;17996;51.056;3.656;2023-08-06T01:03:08;23.13;;;6.38;;
27543;SDS011;17996;51.056;3.656;2023-08-06T01:05:34;21.50;;;5.60;;
27543;SDS011;17996;51.056;3.656;2023-08-06T01:10:59;19.30;;;7.15;;
27543;SDS011;17996;51.056;3.656;2023-08-06T01:13:47;23.92;;;7.70;;
27543;SDS011;17996;51.056;3.656;2023-08-06T01:16:17;26.58;;;9.57;;
27543;SDS011;17996;51.056;3.656;2023-08-06T01:18:43;21.00;;;12.00;;
27543;SDS011;17996;51.056;3.656;2023-08-06T01:21:14;24.27;;;13.57;;
27543;SDS011;17996;51.056;3.656;2023-08-06T01:23:40;26.88;;;14.43;;
27543;SDS011;17996;51.056;3.656;2023-08-06T01:29:08;23.38;;;15.75;;
27543;SDS011;17996;51.056;3.656;2023-08-06T01:31:37;24.63;;;14.40;;
27543;SDS011;17996;51.056;3.656;2023-08-06T01:34:06;29.15;;;16.02;;
27543;SDS011;17996;51.056;3.656;2023-08-06T01:36:35;28.33;;;15.85;;
27543;SDS011;17996;51.056;3.656;2023-08-06T01:39:01;21.88;;;12.75;;
27543;SDS011;17996;51.056;3.656;2023-08-06T01:41:27;16.40;;;11.98;;
27543;SDS011;17996;51.056;3.656;2023-08-06T01:43:53;13.00;;;9.45;;
27543;SDS011;17996;51.056;3.656;2023-08-06T01:46:19;11.93;;;8.82;;
27543;SDS011;17996;51.056;3.656;2023-08-06T01:48:44;7.97;;;6.53;;
27543;SDS011;17996;51.056;3.656;2023-08-06T01:51:10;10.55;;;5.88;;
27543;SDS011;17996;51.056;3.656;2023-08-06T01:53:36;8.38;;;4.57;;
27543;SDS011;17996;51.056;3.656;2023-08-06T01:56:01;9.45;;;4.70;;
27543;SDS011;17996;51.056;3.656;2023-08-06T01:58:27;10.20;;;3.58;;
27543;SDS011;17996;51.056;3.656;2023-08-06T02:00:53;12.35;;;3.58;;
27543;SDS011;17996;51.056;3.656;2023-08-06T02:03:18;8.00;;;2.80;;
27543;SDS011;17996;51.056;3.656;2023-08-06T02:05:44;6.07;;;2.90;;
27543;SDS011;17996;51.056;3.656;2023-08-06T02:08:10;11.90;;;2.58;;
27543;SDS011;17996;51.056;3.656;2023-08-06T02:10:36;10.20;;;2.75;;
27543;SDS011;17996;51.056;3.656;2023-08-06T02:13:02;12.40;;;3.30;;
27543;SDS011;17996;51.056;3.656;2023-08-06T02:15:27;17.25;;;3.22;;
27543;SDS011;17996;51.056;3.656;2023-08-06T02:17:53;8.95;;;3.20;;
27543;SDS011;17996;51.056;3.656;2023-08-06T02:20:19;14.98;;;3.50;;
27543;SDS011;17996;51.056;3.656;2023-08-06T02:22:44;14.77;;;3.05;;
27543;SDS011;17996;51.056;3.656;2023-08-06T02:25:10;12.70;;;3.10;;
27543;SDS011;17996;51.056;3.656;2023-08-06T02:27:37;15.20;;;3.40;;
27543;SDS011;17996;51.056;3.656;2023-08-06T02:30:02;22.70;;;5.32;;
27543;SDS011;17996;51.056;3.656;2023-08-06T02:32:29;8.05;;;4.00;;
27543;SDS011;17996;51.056;3.656;2023-08-06T02:34:56;15.98;;;3.60;;
27543;SDS011;17996;51.056;3.656;2023-08-06T02:37:22;11.57;;;3.72;;
27543;SDS011;17996;51.056;3.656;2023-08-06T02:39:48;12.48;;;3.63;;
27543;SDS011;17996;51.056;3.656;2023-08-06T02:42:13;16.83;;;4.45;;
27543;SDS011;17996;51.056;3.656;2023-08-06T02:44:39;18.73;;;5.38;;
27543;SDS011;17996;51.056;3.656;2023-08-06T02:47:05;32.72;;;6.53;;
27543;SDS011;17996;51.056;3.656;2023-08-06T02:49:31;20.45;;;5.95;;
27543;SDS011;17996;51.056;3.656;2023-08-06T02:51:57;23.00;;;5.95;;
27543;SDS011;17996;51.056;3.656;2023-08-06T02:54:22;27.80;;;6.97;;
27543;SDS011;17996;51.056;3.656;2023-08-06T02:56:48;28.83;;;7.85;;
27543;SDS011;17996;51.056;3.656;2023-08-06T02:59:14;32.92;;;9.50;;
27543;SDS011;17996;51.056;3.656;2023-08-06T03:01:39;29.67;;;9.40;;
27543;SDS011;17996;51.056;3.656;2023-08-06T03:04:05;28.95;;;9.65;;
27543;SDS011;17996;51.056;3.656;2023-08-06T03:06:31;38.10;;;10.40;;
27543;SDS011;17996;51.056;3.656;2023-08-06T03:08:57;33.35;;;10.50;;
27543;SDS011;17996;51.056;3.656;2023-08-06T03:11:22;47.15;;;11.23;;
27543;SDS011;17996;51.056;3.656;2023-08-06T03:13:48;29.98;;;11.05;;
27543;SDS011;17996;51.056;3.656;2023-08-06T03:16:14;39.28;;;12.60;;
27543;SDS011;17996;51.056;3.656;2023-08-06T03:18:40;43.38;;;12.43;;
27543;SDS011;17996;51.056;3.656;2023-08-06T03:21:05;46.28;;;12.40;;
27543;SDS011;17996;51.056;3.656;2023-08-06T03:23:31;34.58;;;8.68;;
27543;SDS011;17996;51.056;3.656;2023-08-06T03:26:03;28.80;;;8.23;;
27543;SDS011;17996;51.056;3.656;2023-08-06T03:28:29;48.65;;;8.88;;
27543;SDS011;17996;51.056;3.656;2023-08-06T03:31:13;38.50;;;9.18;;
27543;SDS011;17996;51.056;3.656;2023-08-06T03:33:38;65.43;;;10.57;;
27543;SDS011;17996;51.056;3.656;2023-08-06T03:36:04;43.95;;;9.07;;
27543;SDS011;17996;51.056;3.656;2023-08-06T03:38:31;37.58;;;8.88;;
27543;SDS011;17996;51.056;3.656;2023-08-06T03:40:56;36.72;;;8.82;;
27543;SDS011;17996;51.056;3.656;2023-08-06T03:43:22;31.13;;;6.90;;
27543;SDS011;17996;51.056;3.656;2023-08-06T03:45:48;38.15;;;7.72;;
27543;SDS011;17996;51.056;3.656;2023-08-06T03:48:13;37.25;;;7.85;;
27543;SDS011;17996;51.056;3.656;2023-08-06T03:50:39;34.42;;;7.47;;
27543;SDS011;17996;51.056;3.656;2023-08-06T03:53:05;29.02;;;8.07;;
27543;SDS011;17996;51.056;3.656;2023-08-06T03:55:30;29.30;;;7.18;;
27543;SDS011;17996;51.056;3.656;2023-08-06T03:57:56;16.80;;;5.78;;
27543;SDS011;17996;51.056;3.656;2023-08-06T04:00:22;26.50;;;6.68;;
27543;SDS011;17996;51.056;3.656;2023-08-06T04:02:47;22.52;;;6.03;;
27543;SDS011;17996;51.056;3.656;2023-08-06T04:05:14;29.67;;;5.72;;
27543;SDS011;17996;51.056;3.656;2023-08-06T04:07:39;19.05;;;4.93;;
27543;SDS011;17996;51.056;3.656;2023-08-06T04:10:05;23.13;;;6.70;;
27543;SDS011;17996;51.056;3.656;2023-08-06T04:12:31;33.38;;;6.40;;
27543;SDS011;17996;51.056;3.656;2023-08-06T04:15:01;22.63;;;5.90;;
27543;SDS011;17996;51.056;3.656;2023-08-06T04:17:27;23.60;;;5.65;;
27543;SDS011;17996;51.056;3.656;2023-08-06T04:19:53;21.98;;;4.75;;
27543;SDS011;17996;51.056;3.656;2023-08-06T04:22:20;30.77;;;6.18;;
27543;SDS011;17996;51.056;3.656;2023-08-06T04:24:46;25.45;;;5.32;;
27543;SDS011;17996;51.056;3.656;2023-08-06T04:27:13;32.80;;;5.38;;
27543;SDS011;17996;51.056;3.656;2023-08-06T04:29:39;19.13;;;5.80;;
27543;SDS011;17996;51.056;3.656;2023-08-06T04:32:06;12.60;;;4.65;;
27543;SDS011;17996;51.056;3.656;2023-08-06T04:34:34;22.67;;;5.25;;
27543;SDS011;17996;51.056;3.656;2023-08-06T04:37:00;17.30;;;4.57;;
27543;SDS011;17996;51.056;3.656;2023-08-06T04:39:26;25.38;;;6.05;;
27543;SDS011;17996;51.056;3.656;2023-08-06T04:41:52;14.77;;;5.53;;
27543;SDS011;17996;51.056;3.656;2023-08-06T04:44:17;16.75;;;5.60;;
27543;SDS011;17996;51.056;3.656;2023-08-06T04:46:43;19.42;;;5.20;;
27543;SDS011;17996;51.056;3.656;2023-08-06T04:49:09;24.83;;;6.18;;
27543;SDS011;17996;51.056;3.656;2023-08-06T04:51:35;23.67;;;7.03;;
27543;SDS011;17996;51.056;3.656;2023-08-06T04:54:01;25.13;;;6.57;;
27543;SDS011;17996;51.056;3.656;2023-08-06T04:56:28;18.38;;;6.68;;
27543;SDS011;17996;51.056;3.656;2023-08-06T04:58:54;26.90;;;6.55;;
27543;SDS011;17996;51.056;3.656;2023-08-06T05:01:19;27.35;;;6.75;;
27543;SDS011;17996;51.056;3.656;2023-08-06T05:03:46;28.80;;;7.75;;
27543;SDS011;17996;51.056;3.656;2023-08-06T05:06:12;26.77;;;6.70;;
27543;SDS011;17996;51.056;3.656;2023-08-06T05:08:38;32.70;;;6.95;;
27543;SDS011;17996;51.056;3.656;2023-08-06T05:11:04;29.55;;;6.75;;
27543;SDS011;17996;51.056;3.656;2023-08-06T05:13:29;24.55;;;6.38;;
27543;SDS011;17996;51.056;3.656;2023-08-06T05:15:55;18.60;;;6.53;;
27543;SDS011;17996;51.056;3.656;2023-08-06T05:18:21;24.15;;;6.75;;
27543;SDS011;17996;51.056;3.656;2023-08-06T05:20:47;17.33;;;6.22;;
27543;SDS011;17996;51.056;3.656;2023-08-06T05:23:13;32.03;;;7.65;;
27543;SDS011;17996;51.056;3.656;2023-08-06T05:25:38;22.25;;;6.85;;
27543;SDS011;17996;51.056;3.656;2023-08-06T05:28:04;17.45;;;6.15;;
27543;SDS011;17996;51.056;3.656;2023-08-06T05:30:31;31.23;;;7.50;;
27543;SDS011;17996;51.056;3.656;2023-08-06T05:32:56;26.52;;;7.28;;
27543;SDS011;17996;51.056;3.656;2023-08-06T05:35:22;23.65;;;6.68;;
27543;SDS011;17996;51.056;3.656;2023-08-06T05:37:50;23.85;;;7.18;;
27543;SDS011;17996;51.056;3.656;2023-08-06T05:40:16;22.25;;;6.43;;
27543;SDS011;17996;51.056;3.656;2023-08-06T05:42:42;21.33;;;5.80;;
27543;SDS011;17996;51.056;3.656;2023-08-06T05:45:08;18.00;;;4.95;;
27543;SDS011;17996;51.056;3.656;2023-08-06T05:47:34;20.98;;;6.00;;
27543;SDS011;17996;51.056;3.656;2023-08-06T05:50:00;18.67;;;6.53;;
27543;SDS011;17996;51.056;3.656;2023-08-06T05:52:26;24.50;;;5.75;;
27543;SDS011;17996;51.056;3.656;2023-08-06T05:54:52;33.95;;;6.03;;
27543;SDS011;17996;51.056;3.656;2023-08-06T05:57:17;21.20;;;4.50;;
27543;SDS011;17996;51.056;3.656;2023-08-06T05:59:43;9.63;;;2.25;;
27543;SDS011;17996;51.056;3.656;2023-08-06T06:02:09;18.77;;;2.60;;
27543;SDS011;17996;51.056;3.656;2023-08-06T06:04:35;16.08;;;3.28;;
27543;SDS011;17996;51.056;3.656;2023-08-06T06:07:02;16.73;;;2.72;;
27543;SDS011;17996;51.056;3.656;2023-08-06T06:09:28;16.75;;;2.70;;
27543;SDS011;17996;51.056;3.656;2023-08-06T06:11:54;18.95;;;2.95;;
27543;SDS011;17996;51.056;3.656;2023-08-06T06:14:19;17.95;;;2.90;;
27543;SDS011;17996;51.056;3.656;2023-08-06T06:16:45;22.75;;;2.58;;
27543;SDS011;17996;51.056;3.656;2023-08-06T06:19:11;18.38;;;3.13;;
27543;SDS011;17996;51.056;3.656;2023-08-06T06:21:38;28.30;;;3.67;;
27543;SDS011;17996;51.056;3.656;2023-08-06T06:24:06;25.42;;;3.25;;
27543;SDS011;17996;51.056;3.656;2023-08-06T06:26:33;11.73;;;2.80;;
27543;SDS011;17996;51.056;3.656;2023-08-06T06:28:58;20.00;;;3.08;;
27543;SDS011;17996;51.056;3.656;2023-08-06T06:31:25;24.05;;;3.35;;
27543;SDS011;17996;51.056;3.656;2023-08-06T06:33:50;24.23;;;3.17;;
27543;SDS011;17996;51.056;3.656;2023-08-06T06:36:18;17.90;;;2.95;;
27543;SDS011;17996;51.056;3.656;2023-08-06T06:38:44;14.15;;;2.88;;
27543;SDS011;17996;51.056;3.656;2023-08-06T06:41:09;25.08;;;3.35;;
27543;SDS011;17996;51.056;3.656;2023-08-06T06:43:35;25.58;;;4.03;;
27543;SDS011;17996;51.056;3.656;2023-08-06T06:46:02;23.88;;;3.53;;
27543;SDS011;17996;51.056;3.656;2023-08-06T06:48:29;27.23;;;4.00;;
27543;SDS011;17996;51.056;3.656;2023-08-06T06:50:56;25.50;;;3.78;;
27543;SDS011;17996;51.056;3.656;2023-08-06T06:53:22;28.70;;;3.60;;
27543;SDS011;17996;51.056;3.656;2023-08-06T06:55:52;26.58;;;3.92;;
27543;SDS011;17996;51.056;3.656;2023-08-06T06:58:26;17.83;;;3.33;;
27543;SDS011;17996;51.056;3.656;2023-08-06T07:00:52;37.08;;;4.68;;
27543;SDS011;17996;51.056;3.656;2023-08-06T07:03:19;24.23;;;4.32;;
27543;SDS011;17996;51.056;3.656;2023-08-06T07:05:45;22.42;;;3.72;;
27543;SDS011;17996;51.056;3.656;2023-08-06T07:08:11;20.63;;;3.95;;
27543;SDS011;17996;51.056;3.656;2023-08-06T07:10:37;20.27;;;3.60;;
27543;SDS011;17996;51.056;3.656;2023-08-06T07:13:03;20.42;;;3.13;;
27543;SDS011;17996;51.056;3.656;2023-08-06T07:15:28;18.15;;;3.08;;
27543;SDS011;17996;51.056;3.656;2023-08-06T07:17:54;19.77;;;3.42;;
27543;SDS011;17996;51.056;3.656;2023-08-06T07:20:20;23.75;;;3.13;;
27543;SDS011;17996;51.056;3.656;2023-08-06T07:22:46;18.13;;;3.55;;
27543;SDS011;17996;51.056;3.656;2023-08-06T07:25:11;25.13;;;3.17;;
27543;SDS011;17996;51.056;3.656;2023-08-06T07:27:38;18.77;;;3.55;;
27543;SDS011;17996;51.056;3.656;2023-08-06T07:30:04;14.25;;;2.85;;
27543;SDS011;17996;51.056;3.656;2023-08-06T07:32:31;10.80;;;2.97;;
27543;SDS011;17996;51.056;3.656;2023-08-06T07:34:56;11.73;;;2.67;;
27543;SDS011;17996;51.056;3.656;2023-08-06T07:37:25;16.58;;;2.88;;
27543;SDS011;17996;51.056;3.656;2023-08-06T07:39:53;9.07;;;2.90;;
27543;SDS011;17996;51.056;3.656;2023-08-06T07:42:19;15.57;;;2.88;;
27543;SDS011;17996;51.056;3.656;2023-08-06T07:44:55;12.15;;;3.00;;
27543;SDS011;17996;51.056;3.656;2023-08-06T07:47:22;17.70;;;3.40;;
27543;SDS011;17996;51.056;3.656;2023-08-06T07:49:48;16.77;;;3.10;;
27543;SDS011;17996;51.056;3.656;2023-08-06T07:52:14;20.63;;;4.05;;
27543;SDS011;17996;51.056;3.656;2023-08-06T07:54:40;21.23;;;2.53;;
27543;SDS011;17996;51.056;3.656;2023-08-06T07:57:05;12.20;;;2.47;;
27543;SDS011;17996;51.056;3.656;2023-08-06T07:59:31;18.05;;;3.40;;
27543;SDS011;17996;51.056;3.656;2023-08-06T08:01:57;15.75;;;3.10;;
27543;SDS011;17996;51.056;3.656;2023-08-06T08:04:23;18.15;;;3.60;;
27543;SDS011;17996;51.056;3.656;2023-08-06T08:06:49;17.88;;;3.08;;
27543;SDS011;17996;51.056;3.656;2023-08-06T08:09:15;22.67;;;3.80;;
27543;SDS011;17996;51.056;3.656;2023-08-06T08:11:41;15.93;;;4.07;;
27543;SDS011;17996;51.056;3.656;2023-08-06T08:14:07;27.05;;;4.15;;
27543;SDS011;17996;51.056;3.656;2023-08-06T08:16:33;15.32;;;3.97;;
27543;SDS011;17996;51.056;3.656;2023-08-06T08:18:58;21.50;;;4.32;;
27543;SDS011;17996;51.056;3.656;2023-08-06T08:21:24;17.60;;;3.20;;
27543;SDS011;17996;51.056;3.656;2023-08-06T08:23:50;20.02;;;3.58;;
27543;SDS011;17996;51.056;3.656;2023-08-06T08:26:16;31.10;;;5.15;;
27543;SDS011;17996;51.056;3.656;2023-08-06T08:28:42;16.00;;;3.58;;
27543;SDS011;17996;51.056;3.656;2023-08-06T08:31:08;21.92;;;3.80;;
27543;SDS011;17996;51.056;3.656;2023-08-06T08:33:35;24.23;;;4.05;;
27543;SDS011;17996;51.056;3.656;2023-08-06T08:36:01;13.43;;;3.08;;
27543;SDS011;17996;51.056;3.656;2023-08-06T08:38:26;24.10;;;3.58;;
27543;SDS011;17996;51.056;3.656;2023-08-06T08:40:53;21.45;;;3.30;;
27543;SDS011;17996;51.056;3.656;2023-08-06T08:43:22;25.15;;;4.05;;
27543;SDS011;17996;51.056;3.656;2023-08-06T08:45:52;15.73;;;3.20;;
27543;SDS011;17996;51.056;3.656;2023-08-06T08:48:24;16.95;;;3.30;;
27543;SDS011;17996;51.056;3.656;2023-08-06T08:50:50;15.93;;;2.70;;
27543;SDS011;17996;51.056;3.656;2023-08-06T08:53:16;21.50;;;3.97;;
27543;SDS011;17996;51.056;3.656;2023-08-06T08:55:43;19.52;;;3.88;;
27543;SDS011;17996;51.056;3.656;2023-08-06T08:58:11;24.27;;;4.37;;
27543;SDS011;17996;51.056;3.656;2023-08-06T09:00:37;17.65;;;3.63;;
27543;SDS011;17996;51.056;3.656;2023-08-06T09:03:06;12.95;;;3.10;;
27543;SDS011;17996;51.056;3.656;2023-08-06T09:05:33;15.75;;;3.33;;
27543;SDS011;17996;51.056;3.656;2023-08-06T09:08:03;22.35;;;3.50;;
27543;SDS011;17996;51.056;3.656;2023-08-06T09:10:29;10.90;;;2.80;;
27543;SDS011;17996;51.056;3.656;2023-08-06T09:12:56;18.80;;;3.15;;
27543;SDS011;17996;51.056;3.656;2023-08-06T09:15:24;14.73;;;3.42;;
27543;SDS011;17996;51.056;3.656;2023-08-06T09:17:51;15.63;;;3.25;;
27543;SDS011;17996;51.056;3.656;2023-08-06T09:20:18;19.00;;;3.13;;
27543;SDS011;17996;51.056;3.656;2023-08-06T09:22:44;23.20;;;3.47;;
27543;SDS011;17996;51.056;3.656;2023-08-06T09:25:10;24.75;;;2.85;;
27543;SDS011;17996;51.056;3.656;2023-08-06T09:27:38;21.58;;;3.65;;
27543;SDS011;17996;51.056;3.656;2023-08-06T09:30:05;21.30;;;3.55;;
27543;SDS011;17996;51.056;3.656;2023-08-06T09:32:48;20.17;;;3.45;;
27543;SDS011;17996;51.056;3.656;2023-08-06T09:35:16;20.60;;;3.50;;
27543;SDS011;17996;51.056;3.656;2023-08-06T09:37:43;21.60;;;3.65;;
27543;SDS011;17996;51.056;3.656;2023-08-06T09:40:24;16.20;;;3.95;;
27543;SDS011;17996;51.056;3.656;2023-08-06T09:42:51;22.13;;;3.45;;
27543;SDS011;17996;51.056;3.656;2023-08-06T09:45:17;20.35;;;3.72;;
27543;SDS011;17996;51.056;3.656;2023-08-06T09:47:43;20.23;;;4.15;;
27543;SDS011;17996;51.056;3.656;2023-08-06T09:50:18;22.77;;;4.45;;
27543;SDS011;17996;51.056;3.656;2023-08-06T09:52:46;21.35;;;4.03;;
27543;SDS011;17996;51.056;3.656;2023-08-06T09:55:13;21.92;;;4.68;;
27543;SDS011;17996;51.056;3.656;2023-08-06T09:57:40;20.40;;;4.00;;
27543;SDS011;17996;51.056;3.656;2023-08-06T10:00:07;19.48;;;4.15;;
27543;SDS011;17996;51.056;3.656;2023-08-06T10:02:37;20.40;;;4.00;;
27543;SDS011;17996;51.056;3.656;2023-08-06T10:05:07;13.73;;;3.38;;
27543;SDS011;17996;51.056;3.656;2023-08-06T10:07:33;14.48;;;3.33;;
27543;SDS011;17996;51.056;3.656;2023-08-06T10:10:00;11.15;;;3.00;;
27543;SDS011;17996;51.056;3.656;2023-08-06T10:12:28;11.30;;;3.03;;
27543;SDS011;17996;51.056;3.656;2023-08-06T10:14:57;18.38;;;3.60;;
27543;SDS011;17996;51.056;3.656;2023-08-06T10:17:25;14.55;;;2.70;;
27543;SDS011;17996;51.056;3.656;2023-08-06T10:19:52;13.80;;;3.35;;
27543;SDS011;17996;51.056;3.656;2023-08-06T10:22:22;12.57;;;3.10;;
27543;SDS011;17996;51.056;3.656;2023-08-06T10:32:52;24.42;;;4.97;;
27543;SDS011;17996;51.056;3.656;2023-08-06T10:38:18;12.80;;;2.80;;
27543;SDS011;17996;51.056;3.656;2023-08-06T10:45:55;10.15;;;3.05;;
27543;SDS011;17996;51.056;3.656;2023-08-06T10:51:09;17.00;;;2.58;;
27543;SDS011;17996;51.056;3.656;2023-08-06T10:53:36;16.02;;;3.72;;
27543;SDS011;17996;51.056;3.656;2023-08-06T10:59:04;22.85;;;3.83;;
27543;SDS011;17996;51.056;3.656;2023-08-06T11:01:30;17.40;;;3.38;;
27543;SDS011;17996;51.056;3.656;2023-08-06T11:04:01;20.00;;;3.35;;
27543;SDS011;17996;51.056;3.656;2023-08-06T11:06:27;15.48;;;3.35;;
27543;SDS011;17996;51.056;3.656;2023-08-06T11:08:53;14.95;;;3.85;;
27543;SDS011;17996;51.056;3.656;2023-08-06T11:11:20;23.25;;;4.43;;
27543;SDS011;17996;51.056;3.656;2023-08-06T11:13:48;26.45;;;4.68;;
27543;SDS011;17996;51.056;3.656;2023-08-06T11:16:16;17.67;;;3.80;;
27543;SDS011;17996;51.056;3.656;2023-08-06T11:18:43;19.67;;;3.45;;
27543;SDS011;17996;51.056;3.656;2023-08-06T11:21:10;16.80;;;3.53;;
27543;SDS011;17996;51.056;3.656;2023-08-06T11:23:40;19.80;;;3.58;;
27543;SDS011;17996;51.056;3.656;2023-08-06T11:26:06;15.32;;;3.15;;
27543;SDS011;17996;51.056;3.656;2023-08-06T11:28:32;18.70;;;4.35;;
27543;SDS011;17996;51.056;3.656;2023-08-06T11:30:58;21.92;;;3.15;;
27543;SDS011;17996;51.056;3.656;2023-08-06T11:33:27;26.23;;;4.78;;
27543;SDS011;17996;51.056;3.656;2023-08-06T11:35:57;26.23;;;3.72;;
27543;SDS011;17996;51.056;3.656;2023-08-06T11:38:28;19.35;;;3.88;;
27543;SDS011;17996;51.056;3.656;2023-08-06T11:40:55;16.58;;;3.22;;
27543;SDS011;17996;51.056;3.656;2023-08-06T11:43:21;16.15;;;3.13;;
27543;SDS011;17996;51.056;3.656;2023-08-06T11:45:47;16.45;;;3.47;;
27543;SDS011;17996;51.056;3.656;2023-08-06T11:48:18;8.82;;;2.72;;
27543;SDS011;17996;51.056;3.656;2023-08-06T11:50:44;14.68;;;2.90;;
27543;SDS011;17996;51.056;3.656;2023-08-06T11:53:11;15.55;;;2.97;;
27543;SDS011;17996;51.056;3.656;2023-08-06T11:55:39;10.85;;;2.80;;
27543;SDS011;17996;51.056;3.656;2023-08-06T11:58:05;16.02;;;3.60;;
27543;SDS011;17996;51.056;3.656;2023-08-06T12:00:31;10.55;;;2.75;;
27543;SDS011;17996;51.056;3.656;2023-08-06T12:02:57;16.42;;;3.70;;
27543;SDS011;17996;51.056;3.656;2023-08-06T12:05:29;16.85;;;2.83;;
27543;SDS011;17996;51.056;3.656;2023-08-06T12:07:56;14.63;;;2.60;;
27543;SDS011;17996;51.056;3.656;2023-08-06T12:10:26;19.30;;;3.60;;
27543;SDS011;17996;51.056;3.656;2023-08-06T12:12:53;13.93;;;3.83;;
27543;SDS011;17996;51.056;3.656;2023-08-06T12:15:19;14.73;;;3.30;;
27543;SDS011;17996;51.056;3.656;2023-08-06T12:17:45;17.08;;;3.58;;
27543;SDS011;17996;51.056;3.656;2023-08-06T12:20:11;12.02;;;2.88;;
27543;SDS011;17996;51.056;3.656;2023-08-06T12:22:37;19.13;;;3.92;;
27543;SDS011;17996;51.056;3.656;2023-08-06T12:25:05;13.57;;;2.92;;
27543;SDS011;17996;51.056;3.656;2023-08-06T12:27:35;14.95;;;3.40;;
27543;SDS011;17996;51.056;3.656;2023-08-06T12:30:01;17.90;;;2.75;;
27543;SDS011;17996;51.056;3.656;2023-08-06T12:32:28;25.20;;;3.53;;
27543;SDS011;17996;51.056;3.656;2023-08-06T12:34:54;21.60;;;3.42;;
27543;SDS011;17996;51.056;3.656;2023-08-06T12:37:20;13.85;;;3.25;;
27543;SDS011;17996;51.056;3.656;2023-08-06T12:39:45;17.90;;;3.40;;
27543;SDS011;17996;51.056;3.656;2023-08-06T12:42:11;18.13;;;3.85;;
27543;SDS011;17996;51.056;3.656;2023-08-06T12:44:37;16.52;;;3.55;;
27543;SDS011;17996;51.056;3.656;2023-08-06T12:47:03;15.60;;;2.70;;
27543;SDS011;17996;51.056;3.656;2023-08-06T12:49:29;10.70;;;2.88;;
27543;SDS011;17996;51.056;3.656;2023-08-06T12:51:56;9.35;;;2.40;;
27543;SDS011;17996;51.056;3.656;2023-08-06T12:54:24;15.73;;;2.80;;
27543;SDS011;17996;51.056;3.656;2023-08-06T12:56:51;14.88;;;3.13;;
27543;SDS011;17996;51.056;3.656;2023-08-06T12:59:17;11.95;;;3.40;;
27543;SDS011;17996;51.056;3.656;2023-08-06T13:01:43;17.50;;;3.15;;
27543;SDS011;17996;51.056;3.656;2023-08-06T13:04:10;12.93;;;2.85;;
27543;SDS011;17996;51.056;3.656;2023-08-06T13:06:36;17.67;;;3.08;;
27543;SDS011;17996;51.056;3.656;2023-08-06T13:09:04;12.23;;;3.13;;
27543;SDS011;17996;51.056;3.656;2023-08-06T13:11:31;18.20;;;3.10;;
27543;SDS011;17996;51.056;3.656;2023-08-06T13:13:59;16.45;;;3.22;;
27543;SDS011;17996;51.056;3.656;2023-08-06T13:16:29;13.15;;;2.95;;
27543;SDS011;17996;51.056;3.656;2023-08-06T13:18:54;15.45;;;2.92;;
27543;SDS011;17996;51.056;3.656;2023-08-06T13:21:20;15.55;;;3.08;;
27543;SDS011;17996;51.056;3.656;2023-08-06T13:23:46;13.77;;;3.05;;
27543;SDS011;17996;51.056;3.656;2023-08-06T13:26:13;18.73;;;2.47;;
27543;SDS011;17996;51.056;3.656;2023-08-06T13:28:38;13.05;;;3.03;;
27543;SDS011;17996;51.056;3.656;2023-08-06T13:31:04;15.13;;;3.15;;
27543;SDS011;17996;51.056;3.656;2023-08-06T13:33:30;13.18;;;3.38;;
27543;SDS011;17996;51.056;3.656;2023-08-06T13:35:55;13.77;;;2.58;;
27543;SDS011;17996;51.056;3.656;2023-08-06T13:38:21;19.65;;;3.22;;
27543;SDS011;17996;51.056;3.656;2023-08-06T13:40:47;10.55;;;2.67;;
27543;SDS011;17996;51.056;3.656;2023-08-06T13:43:13;22.98;;;3.88;;
27543;SDS011;17996;51.056;3.656;2023-08-06T13:45:41;23.38;;;3.50;;
27543;SDS011;17996;51.056;3.656;2023-08-06T13:48:06;19.48;;;3.13;;
27543;SDS011;17996;51.056;3.656;2023-08-06T13:50:32;17.27;;;3.40;;
27543;SDS011;17996;51.056;3.656;2023-08-06T13:52:58;18.20;;;4.07;;
27543;SDS011;17996;51.056;3.656;2023-08-06T13:55:23;19.23;;;3.42;;
27543;SDS011;17996;51.056;3.656;2023-08-06T13:57:49;19.83;;;4.63;;
27543;SDS011;17996;51.056;3.656;2023-08-06T14:00:16;17.33;;;3.72;;
27543;SDS011;17996;51.056;3.656;2023-08-06T14:02:41;25.38;;;3.85;;
27543;SDS011;17996;51.056;3.656;2023-08-06T14:05:09;16.50;;;3.15;;
27543;SDS011;17996;51.056;3.656;2023-08-06T14:07:35;16.25;;;3.20;;
27543;SDS011;17996;51.056;3.656;2023-08-06T14:10:00;14.13;;;3.17;;
27543;SDS011;17996;51.056;3.656;2023-08-06T14:12:26;15.52;;;3.45;;
27543;SDS011;17996;51.056;3.656;2023-08-06T14:14:52;20.00;;;3.55;;
27543;SDS011;17996;51.056;3.656;2023-08-06T14:17:18;26.80;;;4.43;;
27543;SDS011;17996;51.056;3.656;2023-08-06T14:19:43;12.90;;;3.65;;
27543;SDS011;17996;51.056;3.656;2023-08-06T14:22:09;18.13;;;3.55;;
27543;SDS011;17996;51.056;3.656;2023-08-06T14:24:34;14.40;;;3.05;;
27543;SDS011;17996;51.056;3.656;2023-08-06T14:27:00;20.48;;;3.85;;
27543;SDS011;17996;51.056;3.656;2023-08-06T14:29:26;14.55;;;2.55;;
27543;SDS011;17996;51.056;3.656;2023-08-06T14:31:51;12.82;;;2.53;;
27543;SDS011;17996;51.056;3.656;2023-08-06T14:34:17;15.05;;;2.95;;
27543;SDS011;17996;51.056;3.656;2023-08-06T14:36:43;12.35;;;3.47;;
27543;SDS011;17996;51.056;3.656;2023-08-06T14:39:08;11.15;;;2.45;;
27543;SDS011;17996;51.056;3.656;2023-08-06T14:41:34;13.98;;;2.80;;
27543;SDS011;17996;51.056;3.656;2023-08-06T14:44:00;14.05;;;2.58;;
27543;SDS011;17996;51.056;3.656;2023-08-06T14:46:26;10.65;;;2.53;;
27543;SDS011;17996;51.056;3.656;2023-08-06T14:48:51;10.90;;;2.72;;
27543;SDS011;17996;51.056;3.656;2023-08-06T14:51:17;19.38;;;2.67;;
27543;SDS011;17996;51.056;3.656;2023-08-06T14:53:45;17.17;;;2.60;;
27543;SDS011;17996;51.056;3.656;2023-08-06T14:56:11;8.85;;;2.78;;
27543;SDS011;17996;51.056;3.656;2023-08-06T14:58:36;12.95;;;2.95;;